Aviation Digital Data Service (ADDS)

Output produced by METARs form (0954 UTC 17 February 2019)
found at http://aviationweather.gov/metar/data/
 
Forecast for: KMTJ (MONTROSE , CO, US)
Text: KMTJ 170537Z 1706/1806 16008KT P6SM FEW140 BKN250
Forecast period: 0600 to 1900 UTC 17 February 2019
Forecast type: FROM: standard forecast or significant change
Winds: from the SSE (160 degrees) at 9 MPH (8 knots; 4.1 m/s)
Visibility: 6 or more miles 10+ km)
Ceiling: 25000 feet AGL
Clouds: few clouds at 14000 feet AGL
broken clouds at 25000 feet AGL
Weather: no significant weather forecast for this period
Text: FM171900 34005KT P6SM SCT050 BKN110
Forecast period: 1900 UTC 17 February 2019 to 0100 UTC 18 February 2019
Forecast type: FROM: standard forecast or significant change
Winds: from the NNW (340 degrees) at 6 MPH (5 knots; 2.6 m/s)
Visibility: 6 or more miles 10+ km)
Ceiling: 11000 feet AGL
Clouds: scattered clouds at 5000 feet AGL
broken clouds at 11000 feet AGL
Weather: no significant weather forecast for this period
Text: FM180100 01005KT P6SM SCT050 BKN100
Forecast period: 0100 to 0600 UTC 18 February 2019
Forecast type: FROM: standard forecast or significant change
Winds: from the N (10 degrees) at 6 MPH (5 knots; 2.6 m/s)
Visibility: 6 or more miles 10+ km)
Ceiling: 10000 feet AGL
Clouds: scattered clouds at 5000 feet AGL
broken clouds at 10000 feet AGL
Weather: no significant weather forecast for this period